sensor_id;sensor_type;location;lat;lon;timestamp;temperature;humidity
46732;DHT22;32477;51.474;5.696;2022-09-17T00:00:08;9.90;99.90
46732;DHT22;32477;51.474;5.696;2022-09-17T00:02:34;10.00;99.90
46732;DHT22;32477;51.474;5.696;2022-09-17T00:05:00;9.90;99.90
46732;DHT22;32477;51.474;5.696;2022-09-17T00:07:25;9.90;99.90
46732;DHT22;32477;51.474;5.696;2022-09-17T00:09:51;10.00;99.90
46732;DHT22;32477;51.474;5.696;2022-09-17T00:12:16;10.00;99.90
46732;DHT22;32477;51.474;5.696;2022-09-17T00:14:42;10.10;99.90
46732;DHT22;32477;51.474;5.696;2022-09-17T00:17:08;10.10;99.90
46732;DHT22;32477;51.474;5.696;2022-09-17T00:19:33;10.10;99.90
46732;DHT22;32477;51.474;5.696;2022-09-17T00:21:59;10.00;99.90
46732;DHT22;32477;51.474;5.696;2022-09-17T00:24:24;10.10;99.90
46732;DHT22;32477;51.474;5.696;2022-09-17T00:26:50;10.20;99.90
46732;DHT22;32477;51.474;5.696;2022-09-17T00:29:16;10.20;99.90
46732;DHT22;32477;51.474;5.696;2022-09-17T00:31:42;10.30;99.90
46732;DHT22;32477;51.474;5.696;2022-09-17T00:34:08;10.30;99.90
46732;DHT22;32477;51.474;5.696;2022-09-17T00:36:38;10.40;99.90
46732;DHT22;32477;51.474;5.696;2022-09-17T00:39:06;10.40;99.90
46732;DHT22;32477;51.474;5.696;2022-09-17T00:41:33;10.40;99.90
46732;DHT22;32477;51.474;5.696;2022-09-17T00:44:01;10.40;99.90
46732;DHT22;32477;51.474;5.696;2022-09-17T00:46:46;10.50;99.90
46732;DHT22;32477;51.474;5.696;2022-09-17T00:49:20;10.50;99.90
46732;DHT22;32477;51.474;5.696;2022-09-17T00:52:06;10.50;99.90
46732;DHT22;32477;51.474;5.696;2022-09-17T00:54:35;10.50;99.90
46732;DHT22;32477;51.474;5.696;2022-09-17T00:57:02;10.50;99.90
46732;DHT22;32477;51.474;5.696;2022-09-17T00:59:27;10.50;99.90
46732;DHT22;32477;51.474;5.696;2022-09-17T01:01:53;10.60;99.90
46732;DHT22;32477;51.474;5.696;2022-09-17T01:04:22;10.60;99.90
46732;DHT22;32477;51.474;5.696;2022-09-17T01:06:58;10.60;99.90
46732;DHT22;32477;51.474;5.696;2022-09-17T01:32:48;10.50;99.90
46732;DHT22;32477;51.474;5.696;2022-09-17T01:35:45;10.50;99.90
46732;DHT22;32477;51.474;5.696;2022-09-17T01:38:36;10.50;99.90
46732;DHT22;32477;51.474;5.696;2022-09-17T01:41:10;10.50;99.90
46732;DHT22;32477;51.474;5.696;2022-09-17T01:43:49;10.60;99.90
46732;DHT22;32477;51.474;5.696;2022-09-17T01:46:29;10.70;99.90
46732;DHT22;32477;51.474;5.696;2022-09-17T01:49:01;10.70;99.90
46732;DHT22;32477;51.474;5.696;2022-09-17T01:51:31;10.70;99.90
46732;DHT22;32477;51.474;5.696;2022-09-17T01:54:06;10.70;99.90
46732;DHT22;32477;51.474;5.696;2022-09-17T01:56:59;10.70;99.90
46732;DHT22;32477;51.474;5.696;2022-09-17T01:59:35;10.60;99.90
46732;DHT22;32477;51.474;5.696;2022-09-17T02:02:15;10.60;99.90
46732;DHT22;32477;51.474;5.696;2022-09-17T02:05:02;10.50;99.90
46732;DHT22;32477;51.474;5.696;2022-09-17T02:07:31;10.50;99.90
46732;DHT22;32477;51.474;5.696;2022-09-17T02:10:20;10.40;99.90
46732;DHT22;32477;51.474;5.696;2022-09-17T02:12:52;10.30;99.90
46732;DHT22;32477;51.474;5.696;2022-09-17T02:15:26;10.20;99.90
46732;DHT22;32477;51.474;5.696;2022-09-17T02:20:38;10.10;99.90
46732;DHT22;32477;51.474;5.696;2022-09-17T02:23:11;10.10;99.90
46732;DHT22;32477;51.474;5.696;2022-09-17T02:25:49;10.10;99.90
46732;DHT22;32477;51.474;5.696;2022-09-17T02:28:25;10.10;99.90
46732;DHT22;32477;51.474;5.696;2022-09-17T02:30:53;10.10;99.90
46732;DHT22;32477;51.474;5.696;2022-09-17T02:33:19;10.10;99.90
46732;DHT22;32477;51.474;5.696;2022-09-17T02:35:46;10.20;99.90
46732;DHT22;32477;51.474;5.696;2022-09-17T02:38:12;10.30;99.90
46732;DHT22;32477;51.474;5.696;2022-09-17T02:40:46;10.30;99.90
46732;DHT22;32477;51.474;5.696;2022-09-17T02:51:53;10.40;99.90
46732;DHT22;32477;51.474;5.696;2022-09-17T03:00:14;10.30;99.90
46732;DHT22;32477;51.474;5.696;2022-09-17T03:02:42;10.20;99.90
46732;DHT22;32477;51.474;5.696;2022-09-17T03:05:09;10.10;99.90
46732;DHT22;32477;51.474;5.696;2022-09-17T03:07:36;10.00;99.90
46732;DHT22;32477;51.474;5.696;2022-09-17T03:10:03;10.00;99.90
46732;DHT22;32477;51.474;5.696;2022-09-17T03:12:29;10.00;99.90
46732;DHT22;32477;51.474;5.696;2022-09-17T03:14:55;10.10;99.90
46732;DHT22;32477;51.474;5.696;2022-09-17T03:17:20;10.10;99.90
46732;DHT22;32477;51.474;5.696;2022-09-17T03:19:46;10.20;99.90
46732;DHT22;32477;51.474;5.696;2022-09-17T03:22:12;10.10;99.90
46732;DHT22;32477;51.474;5.696;2022-09-17T03:24:38;10.20;99.90
46732;DHT22;32477;51.474;5.696;2022-09-17T03:27:04;10.30;99.90
46732;DHT22;32477;51.474;5.696;2022-09-17T03:29:29;10.30;99.90
46732;DHT22;32477;51.474;5.696;2022-09-17T03:31:55;10.30;99.90
46732;DHT22;32477;51.474;5.696;2022-09-17T03:34:21;10.30;99.90
46732;DHT22;32477;51.474;5.696;2022-09-17T03:36:46;10.20;99.90
46732;DHT22;32477;51.474;5.696;2022-09-17T03:39:12;10.10;99.90
46732;DHT22;32477;51.474;5.696;2022-09-17T03:41:38;10.10;99.90
46732;DHT22;32477;51.474;5.696;2022-09-17T03:44:04;10.10;99.90
46732;DHT22;32477;51.474;5.696;2022-09-17T03:46:29;10.10;99.90
46732;DHT22;32477;51.474;5.696;2022-09-17T03:48:55;10.00;99.90
46732;DHT22;32477;51.474;5.696;2022-09-17T03:51:21;10.00;99.90
46732;DHT22;32477;51.474;5.696;2022-09-17T03:53:46;10.10;99.90
46732;DHT22;32477;51.474;5.696;2022-09-17T03:56:12;10.20;99.90
46732;DHT22;32477;51.474;5.696;2022-09-17T03:58:39;10.30;99.90
46732;DHT22;32477;51.474;5.696;2022-09-17T04:01:04;10.30;99.90
46732;DHT22;32477;51.474;5.696;2022-09-17T04:03:31;10.40;99.90
46732;DHT22;32477;51.474;5.696;2022-09-17T04:05:57;10.30;99.90
46732;DHT22;32477;51.474;5.696;2022-09-17T04:08:22;10.30;99.90
46732;DHT22;32477;51.474;5.696;2022-09-17T04:10:48;10.20;99.90
46732;DHT22;32477;51.474;5.696;2022-09-17T04:13:16;10.20;99.90
46732;DHT22;32477;51.474;5.696;2022-09-17T04:15:43;10.20;99.90
46732;DHT22;32477;51.474;5.696;2022-09-17T04:18:09;10.20;99.90
46732;DHT22;32477;51.474;5.696;2022-09-17T04:20:35;10.20;99.90
46732;DHT22;32477;51.474;5.696;2022-09-17T04:23:01;10.20;99.90
46732;DHT22;32477;51.474;5.696;2022-09-17T04:25:26;10.30;99.90
46732;DHT22;32477;51.474;5.696;2022-09-17T04:27:52;10.30;99.90
46732;DHT22;32477;51.474;5.696;2022-09-17T04:30:18;10.30;99.90
46732;DHT22;32477;51.474;5.696;2022-09-17T04:32:44;10.20;99.90
46732;DHT22;32477;51.474;5.696;2022-09-17T04:35:10;10.20;99.90
46732;DHT22;32477;51.474;5.696;2022-09-17T04:37:36;10.20;99.90
46732;DHT22;32477;51.474;5.696;2022-09-17T04:40:02;10.10;99.90
46732;DHT22;32477;51.474;5.696;2022-09-17T04:42:28;10.00;99.90
46732;DHT22;32477;51.474;5.696;2022-09-17T04:44:53;9.90;99.90
46732;DHT22;32477;51.474;5.696;2022-09-17T04:47:19;9.90;99.90
46732;DHT22;32477;51.474;5.696;2022-09-17T04:49:45;9.80;99.90
46732;DHT22;32477;51.474;5.696;2022-09-17T04:52:10;9.80;99.90
46732;DHT22;32477;51.474;5.696;2022-09-17T04:54:36;9.80;99.90
46732;DHT22;32477;51.474;5.696;2022-09-17T04:57:01;9.70;99.90
46732;DHT22;32477;51.474;5.696;2022-09-17T04:59:27;9.70;99.90
46732;DHT22;32477;51.474;5.696;2022-09-17T05:01:53;9.70;99.90
46732;DHT22;32477;51.474;5.696;2022-09-17T05:04:19;9.70;99.90
46732;DHT22;32477;51.474;5.696;2022-09-17T05:06:45;9.70;99.90
46732;DHT22;32477;51.474;5.696;2022-09-17T05:09:12;9.60;99.90
46732;DHT22;32477;51.474;5.696;2022-09-17T05:11:39;9.60;99.90
46732;DHT22;32477;51.474;5.696;2022-09-17T05:14:04;9.60;99.90
46732;DHT22;32477;51.474;5.696;2022-09-17T05:16:30;9.50;99.90
46732;DHT22;32477;51.474;5.696;2022-09-17T05:18:56;9.50;99.90
46732;DHT22;32477;51.474;5.696;2022-09-17T05:21:22;9.50;99.90
46732;DHT22;32477;51.474;5.696;2022-09-17T05:23:48;9.50;99.90
46732;DHT22;32477;51.474;5.696;2022-09-17T05:26:14;9.50;99.90
46732;DHT22;32477;51.474;5.696;2022-09-17T05:28:40;9.40;99.90
46732;DHT22;32477;51.474;5.696;2022-09-17T05:31:06;9.40;99.90
46732;DHT22;32477;51.474;5.696;2022-09-17T05:33:32;9.40;99.90
46732;DHT22;32477;51.474;5.696;2022-09-17T05:35:57;9.50;99.90
46732;DHT22;32477;51.474;5.696;2022-09-17T05:38:24;9.50;99.90
46732;DHT22;32477;51.474;5.696;2022-09-17T05:40:50;9.50;99.90
46732;DHT22;32477;51.474;5.696;2022-09-17T05:43:16;9.40;99.90
46732;DHT22;32477;51.474;5.696;2022-09-17T05:45:42;9.50;99.90
46732;DHT22;32477;51.474;5.696;2022-09-17T05:48:11;9.50;99.90
46732;DHT22;32477;51.474;5.696;2022-09-17T05:50:37;9.50;99.90
46732;DHT22;32477;51.474;5.696;2022-09-17T05:53:05;9.50;99.90
46732;DHT22;32477;51.474;5.696;2022-09-17T05:55:32;9.50;99.90
46732;DHT22;32477;51.474;5.696;2022-09-17T05:57:58;9.60;99.90
46732;DHT22;32477;51.474;5.696;2022-09-17T06:00:23;9.60;99.90
46732;DHT22;32477;51.474;5.696;2022-09-17T06:02:56;9.70;99.90
46732;DHT22;32477;51.474;5.696;2022-09-17T06:05:24;9.80;99.90
46732;DHT22;32477;51.474;5.696;2022-09-17T06:07:50;9.90;99.90
46732;DHT22;32477;51.474;5.696;2022-09-17T06:10:16;9.90;99.90
46732;DHT22;32477;51.474;5.696;2022-09-17T06:12:42;9.90;99.90
46732;DHT22;32477;51.474;5.696;2022-09-17T06:15:08;10.00;99.90
46732;DHT22;32477;51.474;5.696;2022-09-17T06:17:34;10.10;99.90
46732;DHT22;32477;51.474;5.696;2022-09-17T06:20:02;10.30;99.90
46732;DHT22;32477;51.474;5.696;2022-09-17T06:22:29;10.40;99.90
46732;DHT22;32477;51.474;5.696;2022-09-17T06:24:55;10.40;99.90
46732;DHT22;32477;51.474;5.696;2022-09-17T06:27:21;10.50;99.90
46732;DHT22;32477;51.474;5.696;2022-09-17T06:29:46;10.60;99.90
46732;DHT22;32477;51.474;5.696;2022-09-17T06:32:12;10.60;99.90
46732;DHT22;32477;51.474;5.696;2022-09-17T06:34:40;10.60;99.90
46732;DHT22;32477;51.474;5.696;2022-09-17T06:37:06;10.70;99.90
46732;DHT22;32477;51.474;5.696;2022-09-17T06:39:32;10.90;99.90
46732;DHT22;32477;51.474;5.696;2022-09-17T06:41:57;10.90;99.90
46732;DHT22;32477;51.474;5.696;2022-09-17T06:44:23;10.90;99.90
46732;DHT22;32477;51.474;5.696;2022-09-17T06:46:49;11.00;99.90
46732;DHT22;32477;51.474;5.696;2022-09-17T06:49:18;11.00;99.90
46732;DHT22;32477;51.474;5.696;2022-09-17T06:51:44;11.00;99.90
46732;DHT22;32477;51.474;5.696;2022-09-17T06:54:09;11.10;99.90
46732;DHT22;32477;51.474;5.696;2022-09-17T06:56:35;11.40;99.90
46732;DHT22;32477;51.474;5.696;2022-09-17T06:59:01;11.80;99.90
46732;DHT22;32477;51.474;5.696;2022-09-17T07:01:27;11.90;99.90
46732;DHT22;32477;51.474;5.696;2022-09-17T07:03:52;12.10;99.90
46732;DHT22;32477;51.474;5.696;2022-09-17T07:06:19;12.30;99.90
46732;DHT22;32477;51.474;5.696;2022-09-17T07:08:44;12.30;99.90
46732;DHT22;32477;51.474;5.696;2022-09-17T07:11:11;12.60;99.90
46732;DHT22;32477;51.474;5.696;2022-09-17T07:13:38;13.10;99.90
46732;DHT22;32477;51.474;5.696;2022-09-17T07:16:04;13.10;99.90
46732;DHT22;32477;51.474;5.696;2022-09-17T07:18:31;13.00;99.90
46732;DHT22;32477;51.474;5.696;2022-09-17T07:20:59;13.20;99.90
46732;DHT22;32477;51.474;5.696;2022-09-17T07:23:30;13.70;99.90
46732;DHT22;32477;51.474;5.696;2022-09-17T07:26:00;14.20;99.90
46732;DHT22;32477;51.474;5.696;2022-09-17T07:28:27;14.70;99.90
46732;DHT22;32477;51.474;5.696;2022-09-17T07:30:53;15.60;99.90
46732;DHT22;32477;51.474;5.696;2022-09-17T07:33:23;16.20;99.90
46732;DHT22;32477;51.474;5.696;2022-09-17T07:35:59;16.40;99.90
46732;DHT22;32477;51.474;5.696;2022-09-17T07:38:26;16.70;99.90
46732;DHT22;32477;51.474;5.696;2022-09-17T07:41:00;16.70;99.90
46732;DHT22;32477;51.474;5.696;2022-09-17T07:43:28;17.20;99.90
46732;DHT22;32477;51.474;5.696;2022-09-17T07:45:56;17.50;99.90
46732;DHT22;32477;51.474;5.696;2022-09-17T07:48:22;17.80;99.90
46732;DHT22;32477;51.474;5.696;2022-09-17T07:50:47;17.90;99.90
46732;DHT22;32477;51.474;5.696;2022-09-17T07:53:13;18.10;99.90
46732;DHT22;32477;51.474;5.696;2022-09-17T07:55:39;17.60;99.90
46732;DHT22;32477;51.474;5.696;2022-09-17T07:58:05;17.90;99.90
46732;DHT22;32477;51.474;5.696;2022-09-17T08:00:30;17.70;99.90
46732;DHT22;32477;51.474;5.696;2022-09-17T08:02:56;18.00;99.90
46732;DHT22;32477;51.474;5.696;2022-09-17T08:05:23;18.00;99.90
46732;DHT22;32477;51.474;5.696;2022-09-17T08:07:53;18.30;99.90
46732;DHT22;32477;51.474;5.696;2022-09-17T08:10:19;18.50;99.90
46732;DHT22;32477;51.474;5.696;2022-09-17T08:12:52;18.00;99.90
46732;DHT22;32477;51.474;5.696;2022-09-17T08:15:18;17.50;99.90
46732;DHT22;32477;51.474;5.696;2022-09-17T08:17:45;17.70;99.90
46732;DHT22;32477;51.474;5.696;2022-09-17T08:20:12;18.60;99.90
46732;DHT22;32477;51.474;5.696;2022-09-17T08:22:37;19.30;99.90
46732;DHT22;32477;51.474;5.696;2022-09-17T08:25:04;19.60;99.90
46732;DHT22;32477;51.474;5.696;2022-09-17T08:27:30;19.10;99.90
46732;DHT22;32477;51.474;5.696;2022-09-17T08:29:56;18.70;99.90
46732;DHT22;32477;51.474;5.696;2022-09-17T08:32:22;18.00;99.90
46732;DHT22;32477;51.474;5.696;2022-09-17T08:34:48;17.10;99.90
46732;DHT22;32477;51.474;5.696;2022-09-17T08:37:13;16.30;99.90
46732;DHT22;32477;51.474;5.696;2022-09-17T08:39:39;15.50;99.90
46732;DHT22;32477;51.474;5.696;2022-09-17T08:44:44;14.40;99.90
46732;DHT22;32477;51.474;5.696;2022-09-17T08:49:52;15.50;99.90
46732;DHT22;32477;51.474;5.696;2022-09-17T08:55:14;18.30;99.90
46732;DHT22;32477;51.474;5.696;2022-09-17T09:00:40;19.50;99.90
46732;DHT22;32477;51.474;5.696;2022-09-17T09:05:47;20.40;99.90
46732;DHT22;32477;51.474;5.696;2022-09-17T09:08:35;20.40;99.90
46732;DHT22;32477;51.474;5.696;2022-09-17T09:11:05;21.00;99.40
46732;DHT22;32477;51.474;5.696;2022-09-17T09:13:41;20.90;98.00
46732;DHT22;32477;51.474;5.696;2022-09-17T09:16:20;21.60;97.60
46732;DHT22;32477;51.474;5.696;2022-09-17T09:18:51;22.20;96.30
46732;DHT22;32477;51.474;5.696;2022-09-17T09:21:29;22.10;96.80
46732;DHT22;32477;51.474;5.696;2022-09-17T09:24:23;20.50;97.40
46732;DHT22;32477;51.474;5.696;2022-09-17T09:27:04;19.60;99.10
46732;DHT22;32477;51.474;5.696;2022-09-17T09:35:22;19.00;99.90
46732;DHT22;32477;51.474;5.696;2022-09-17T09:38:15;18.20;99.90
46732;DHT22;32477;51.474;5.696;2022-09-17T09:41:08;17.20;99.90
46732;DHT22;32477;51.474;5.696;2022-09-17T09:43:43;16.50;99.90
46732;DHT22;32477;51.474;5.696;2022-09-17T09:49:05;16.40;99.90
46732;DHT22;32477;51.474;5.696;2022-09-17T09:57:53;18.30;99.90
46732;DHT22;32477;51.474;5.696;2022-09-17T10:03:15;18.60;99.90
46732;DHT22;32477;51.474;5.696;2022-09-17T10:05:58;19.30;99.90
46732;DHT22;32477;51.474;5.696;2022-09-17T10:08:26;19.40;99.10
46732;DHT22;32477;51.474;5.696;2022-09-17T10:13:35;17.80;99.90
46732;DHT22;32477;51.474;5.696;2022-09-17T10:16:24;17.40;99.90
46732;DHT22;32477;51.474;5.696;2022-09-17T10:19:11;18.30;99.90
46732;DHT22;32477;51.474;5.696;2022-09-17T10:21:40;19.40;98.40
46732;DHT22;32477;51.474;5.696;2022-09-17T10:24:26;20.50;97.10
46732;DHT22;32477;51.474;5.696;2022-09-17T10:27:01;19.70;96.10
46732;DHT22;32477;51.474;5.696;2022-09-17T10:29:28;19.70;97.70
46732;DHT22;32477;51.474;5.696;2022-09-17T10:31:57;20.10;97.60
46732;DHT22;32477;51.474;5.696;2022-09-17T10:34:28;21.00;95.60
46732;DHT22;32477;51.474;5.696;2022-09-17T10:36:54;20.00;95.50
46732;DHT22;32477;51.474;5.696;2022-09-17T10:39:35;19.30;96.40
46732;DHT22;32477;51.474;5.696;2022-09-17T10:42:18;19.70;96.90
46732;DHT22;32477;51.474;5.696;2022-09-17T10:45:10;19.10;96.80
46732;DHT22;32477;51.474;5.696;2022-09-17T10:47:47;18.10;98.90
46732;DHT22;32477;51.474;5.696;2022-09-17T10:50:18;17.00;99.90
46732;DHT22;32477;51.474;5.696;2022-09-17T10:52:49;17.00;99.90
46732;DHT22;32477;51.474;5.696;2022-09-17T10:55:29;17.90;99.90
46732;DHT22;32477;51.474;5.696;2022-09-17T11:00:43;20.00;97.10
46732;DHT22;32477;51.474;5.696;2022-09-17T11:20:17;20.80;92.80
46732;DHT22;32477;51.474;5.696;2022-09-17T11:25:59;20.10;93.80
46732;DHT22;32477;51.474;5.696;2022-09-17T11:31:36;20.80;94.40
46732;DHT22;32477;51.474;5.696;2022-09-17T11:42:09;19.40;94.90
46732;DHT22;32477;51.474;5.696;2022-09-17T11:44:44;20.20;94.60
46732;DHT22;32477;51.474;5.696;2022-09-17T11:47:41;21.70;94.00
46732;DHT22;32477;51.474;5.696;2022-09-17T11:53:36;22.70;92.00
46732;DHT22;32477;51.474;5.696;2022-09-17T11:56:13;22.00;90.80
46732;DHT22;32477;51.474;5.696;2022-09-17T11:58:53;21.40;91.70
46732;DHT22;32477;51.474;5.696;2022-09-17T12:04:12;22.20;91.10
46732;DHT22;32477;51.474;5.696;2022-09-17T12:06:55;21.90;90.60
46732;DHT22;32477;51.474;5.696;2022-09-17T12:09:25;22.00;91.40
46732;DHT22;32477;51.474;5.696;2022-09-17T12:12:06;21.70;91.50
46732;DHT22;32477;51.474;5.696;2022-09-17T12:15:03;20.80;92.30
46732;DHT22;32477;51.474;5.696;2022-09-17T12:20:27;20.40;92.20
46732;DHT22;32477;51.474;5.696;2022-09-17T12:22:57;20.20;93.30
46732;DHT22;32477;51.474;5.696;2022-09-17T12:25:26;19.70;93.20
46732;DHT22;32477;51.474;5.696;2022-09-17T12:28:26;20.90;93.30
46732;DHT22;32477;51.474;5.696;2022-09-17T12:31:04;21.60;91.30
46732;DHT22;32477;51.474;5.696;2022-09-17T12:33:37;22.30;90.70
46732;DHT22;32477;51.474;5.696;2022-09-17T12:36:29;20.80;91.20
46732;DHT22;32477;51.474;5.696;2022-09-17T12:50:09;16.80;99.90
46732;DHT22;32477;51.474;5.696;2022-09-17T12:53:16;18.50;99.90
46732;DHT22;32477;51.474;5.696;2022-09-17T12:56:16;19.70;99.90
46732;DHT22;32477;51.474;5.696;2022-09-17T12:59:05;20.20;99.90
46732;DHT22;32477;51.474;5.696;2022-09-17T13:15:57;19.90;95.10
46732;DHT22;32477;51.474;5.696;2022-09-17T13:18:35;20.00;94.80
46732;DHT22;32477;51.474;5.696;2022-09-17T13:21:13;19.90;94.80
46732;DHT22;32477;51.474;5.696;2022-09-17T13:23:42;19.90;91.60
46732;DHT22;32477;51.474;5.696;2022-09-17T13:26:10;19.40;93.40
46732;DHT22;32477;51.474;5.696;2022-09-17T13:28:42;18.90;92.30
46732;DHT22;32477;51.474;5.696;2022-09-17T13:31:08;19.50;91.90
46732;DHT22;32477;51.474;5.696;2022-09-17T13:39:55;21.10;78.80
46732;DHT22;32477;51.474;5.696;2022-09-17T13:42:18;21.10;77.50
46732;DHT22;32477;51.474;5.696;2022-09-17T13:45:04;20.80;74.40
46732;DHT22;32477;51.474;5.696;2022-09-17T13:47:33;20.60;76.30
46732;DHT22;32477;51.474;5.696;2022-09-17T13:50:05;20.40;79.10
46732;DHT22;32477;51.474;5.696;2022-09-17T13:55:05;21.10;78.90
46732;DHT22;32477;51.474;5.696;2022-09-17T13:57:33;21.10;79.90
46732;DHT22;32477;51.474;5.696;2022-09-17T14:01:16;20.40;81.60
46732;DHT22;32477;51.474;5.696;2022-09-17T14:03:50;19.40;85.60
46732;DHT22;32477;51.474;5.696;2022-09-17T14:08:47;17.60;91.60
46732;DHT22;32477;51.474;5.696;2022-09-17T14:13:50;17.20;93.90
46732;DHT22;32477;51.474;5.696;2022-09-17T14:21:39;18.00;93.80
46732;DHT22;32477;51.474;5.696;2022-09-17T14:24:23;18.50;93.70
46732;DHT22;32477;51.474;5.696;2022-09-17T14:37:48;17.70;92.90
46732;DHT22;32477;51.474;5.696;2022-09-17T14:40:17;17.10;93.70
46732;DHT22;32477;51.474;5.696;2022-09-17T14:42:45;17.10;93.80
46732;DHT22;32477;51.474;5.696;2022-09-17T14:45:18;17.20;93.90
46732;DHT22;32477;51.474;5.696;2022-09-17T14:47:45;17.30;94.00
46732;DHT22;32477;51.474;5.696;2022-09-17T14:50:24;17.00;94.80
46732;DHT22;32477;51.474;5.696;2022-09-17T14:52:51;16.90;94.80
46732;DHT22;32477;51.474;5.696;2022-09-17T14:55:19;16.90;95.50
46732;DHT22;32477;51.474;5.696;2022-09-17T14:57:56;16.70;95.60
46732;DHT22;32477;51.474;5.696;2022-09-17T15:00:41;16.60;95.80
46732;DHT22;32477;51.474;5.696;2022-09-17T15:03:21;16.40;96.10
46732;DHT22;32477;51.474;5.696;2022-09-17T15:05:47;16.10;96.50
46732;DHT22;32477;51.474;5.696;2022-09-17T15:11:02;15.90;96.60
46732;DHT22;32477;51.474;5.696;2022-09-17T15:13:35;16.10;96.80
46732;DHT22;32477;51.474;5.696;2022-09-17T15:16:05;16.20;97.10
46732;DHT22;32477;51.474;5.696;2022-09-17T15:18:52;16.30;97.40
46732;DHT22;32477;51.474;5.696;2022-09-17T15:23:44;16.40;94.70
46732;DHT22;32477;51.474;5.696;2022-09-17T15:26:11;16.40;94.40
46732;DHT22;32477;51.474;5.696;2022-09-17T15:28:40;16.40;93.70
46732;DHT22;32477;51.474;5.696;2022-09-17T15:31:15;16.40;93.00
46732;DHT22;32477;51.474;5.696;2022-09-17T15:33:43;16.30;92.50
46732;DHT22;32477;51.474;5.696;2022-09-17T15:38:42;16.30;91.60
46732;DHT22;32477;51.474;5.696;2022-09-17T15:43:45;16.30;91.00
46732;DHT22;32477;51.474;5.696;2022-09-17T15:46:29;16.40;91.00
46732;DHT22;32477;51.474;5.696;2022-09-17T15:48:58;16.40;91.80
46732;DHT22;32477;51.474;5.696;2022-09-17T15:51:30;16.50;91.40
46732;DHT22;32477;51.474;5.696;2022-09-17T15:53:58;16.60;91.20
46732;DHT22;32477;51.474;5.696;2022-09-17T15:56:36;16.60;90.90
46732;DHT22;32477;51.474;5.696;2022-09-17T15:59:29;16.40;91.20
46732;DHT22;32477;51.474;5.696;2022-09-17T16:01:57;16.40;90.80
46732;DHT22;32477;51.474;5.696;2022-09-17T16:04:25;16.40;91.60
46732;DHT22;32477;51.474;5.696;2022-09-17T16:09:49;16.60;91.90
46732;DHT22;32477;51.474;5.696;2022-09-17T16:12:20;16.70;91.50
46732;DHT22;32477;51.474;5.696;2022-09-17T16:14:50;16.60;92.00
46732;DHT22;32477;51.474;5.696;2022-09-17T16:17:43;16.40;92.70
46732;DHT22;32477;51.474;5.696;2022-09-17T16:22:39;16.30;94.10
46732;DHT22;32477;51.474;5.696;2022-09-17T16:25:05;16.30;94.40
46732;DHT22;32477;51.474;5.696;2022-09-17T16:27:41;16.30;94.10
46732;DHT22;32477;51.474;5.696;2022-09-17T16:30:14;16.10;94.70
46732;DHT22;32477;51.474;5.696;2022-09-17T16:32:41;16.20;94.90
46732;DHT22;32477;51.474;5.696;2022-09-17T16:35:10;16.20;94.70
46732;DHT22;32477;51.474;5.696;2022-09-17T16:37:36;16.10;95.10
46732;DHT22;32477;51.474;5.696;2022-09-17T16:40:02;16.00;95.10
46732;DHT22;32477;51.474;5.696;2022-09-17T16:42:31;15.90;94.60
46732;DHT22;32477;51.474;5.696;2022-09-17T16:44:57;15.70;94.60
46732;DHT22;32477;51.474;5.696;2022-09-17T16:47:24;15.50;94.20
46732;DHT22;32477;51.474;5.696;2022-09-17T16:49:50;15.40;94.30
46732;DHT22;32477;51.474;5.696;2022-09-17T16:52:15;15.30;94.10
46732;DHT22;32477;51.474;5.696;2022-09-17T16:54:41;15.10;94.30
46732;DHT22;32477;51.474;5.696;2022-09-17T16:57:06;15.10;95.20
46732;DHT22;32477;51.474;5.696;2022-09-17T16:59:32;14.90;95.70
46732;DHT22;32477;51.474;5.696;2022-09-17T17:01:57;14.80;95.90
46732;DHT22;32477;51.474;5.696;2022-09-17T17:04:24;14.80;96.00
46732;DHT22;32477;51.474;5.696;2022-09-17T17:06:50;14.70;96.10
46732;DHT22;32477;51.474;5.696;2022-09-17T17:09:16;14.60;96.40
46732;DHT22;32477;51.474;5.696;2022-09-17T17:11:41;14.50;96.50
46732;DHT22;32477;51.474;5.696;2022-09-17T17:14:07;14.50;96.00
46732;DHT22;32477;51.474;5.696;2022-09-17T17:16:33;14.50;96.00
46732;DHT22;32477;51.474;5.696;2022-09-17T17:18:59;14.50;95.70
46732;DHT22;32477;51.474;5.696;2022-09-17T17:21:25;14.50;95.50
46732;DHT22;32477;51.474;5.696;2022-09-17T17:23:50;14.40;95.70
46732;DHT22;32477;51.474;5.696;2022-09-17T17:26:16;14.40;95.90
46732;DHT22;32477;51.474;5.696;2022-09-17T17:28:42;14.30;96.10
46732;DHT22;32477;51.474;5.696;2022-09-17T17:31:09;14.40;96.40
46732;DHT22;32477;51.474;5.696;2022-09-17T17:33:35;14.30;96.70
46732;DHT22;32477;51.474;5.696;2022-09-17T17:36:03;14.40;97.00
46732;DHT22;32477;51.474;5.696;2022-09-17T17:38:29;14.40;97.40
46732;DHT22;32477;51.474;5.696;2022-09-17T17:41:21;14.40;97.50
46732;DHT22;32477;51.474;5.696;2022-09-17T17:43:51;14.40;97.70
46732;DHT22;32477;51.474;5.696;2022-09-17T17:46:17;14.40;98.00
46732;DHT22;32477;51.474;5.696;2022-09-17T17:48:43;14.30;98.50
46732;DHT22;32477;51.474;5.696;2022-09-17T17:51:10;14.30;99.10
46732;DHT22;32477;51.474;5.696;2022-09-17T17:53:36;14.20;99.80
46732;DHT22;32477;51.474;5.696;2022-09-17T17:56:04;14.20;99.90
46732;DHT22;32477;51.474;5.696;2022-09-17T17:58:31;14.10;99.90
46732;DHT22;32477;51.474;5.696;2022-09-17T18:00:58;14.10;99.90
46732;DHT22;32477;51.474;5.696;2022-09-17T18:03:24;14.00;99.90
46732;DHT22;32477;51.474;5.696;2022-09-17T18:05:54;13.90;99.90
46732;DHT22;32477;51.474;5.696;2022-09-17T18:08:23;13.60;99.90
46732;DHT22;32477;51.474;5.696;2022-09-17T18:10:56;13.40;99.90
46732;DHT22;32477;51.474;5.696;2022-09-17T18:13:25;13.30;99.90
46732;DHT22;32477;51.474;5.696;2022-09-17T18:15:56;13.20;99.90
46732;DHT22;32477;51.474;5.696;2022-09-17T18:18:23;13.00;99.90
46732;DHT22;32477;51.474;5.696;2022-09-17T18:20:50;12.90;99.90
46732;DHT22;32477;51.474;5.696;2022-09-17T18:23:18;12.90;99.90
46732;DHT22;32477;51.474;5.696;2022-09-17T18:25:57;12.90;99.90
46732;DHT22;32477;51.474;5.696;2022-09-17T18:28:24;12.80;99.90
46732;DHT22;32477;51.474;5.696;2022-09-17T18:30:51;12.80;99.90
46732;DHT22;32477;51.474;5.696;2022-09-17T18:33:24;12.80;99.90
46732;DHT22;32477;51.474;5.696;2022-09-17T18:35:53;12.80;99.90
46732;DHT22;32477;51.474;5.696;2022-09-17T18:38:24;12.80;99.90
46732;DHT22;32477;51.474;5.696;2022-09-17T18:40:50;12.70;99.90
46732;DHT22;32477;51.474;5.696;2022-09-17T18:43:18;12.80;99.90
46732;DHT22;32477;51.474;5.696;2022-09-17T18:45:55;12.70;99.90
46732;DHT22;32477;51.474;5.696;2022-09-17T18:48:22;12.60;99.90
46732;DHT22;32477;51.474;5.696;2022-09-17T18:53:20;12.60;99.90
46732;DHT22;32477;51.474;5.696;2022-09-17T18:55:46;12.60;99.90
46732;DHT22;32477;51.474;5.696;2022-09-17T18:58:12;12.50;99.90
46732;DHT22;32477;51.474;5.696;2022-09-17T19:00:39;12.50;99.90
46732;DHT22;32477;51.474;5.696;2022-09-17T19:03:05;12.50;99.90